Time;durP1;ratioP1;P1;durP2;ratioP2;P2;SDS_P1;SDS_P2;PMS_P1;PMS_P2;Temp;Humidity;BMP_temperature;BMP_pressure;BME280_temperature;BME280_humidity;BME280_pressure;Samples;Min_cycle;Max_cycle;Signal;HPM_P1;HPM_P2
2022/03/28 00:02:12;;;;;;;;;;;8.40;99.90;;;;;;5088949;28;19958;-74
2022/03/28 00:04:39;;;;;;;;;;;8.30;99.90;;;;;;5102205;28;19932;-74
2022/03/28 00:07:06;;;;;;;;;;;8.10;99.90;;;;;;5108413;28;19935;-74
2022/03/28 00:09:36;;;;;;;;;;;7.90;99.90;;;;;;5095667;28;20375;-74
2022/03/28 00:12:02;;;;;;;;;;;7.70;99.90;;;;;;5099348;28;20018;-74
2022/03/28 00:14:29;;;;;;;;;;;7.60;99.90;;;;;;5098974;28;20007;-74
2022/03/28 00:16:57;;;;;;;;;;;7.50;99.90;;;;;;5088345;28;20026;-74
2022/03/28 00:19:26;;;;;;;;;;;7.50;99.90;;;;;;5102468;28;19955;-74
2022/03/28 00:21:56;;;;;;;;;;;7.40;99.90;;;;;;5108765;28;19982;-74
2022/03/28 00:24:23;;;;;;;;;;;7.30;99.90;;;;;;5097787;28;19924;-74
2022/03/28 00:26:50;;;;;;;;;;;7.20;99.90;;;;;;5083525;28;19924;-73
2022/03/28 00:29:17;;;;;;;;;;;7.00;99.90;;;;;;5103456;28;19923;-74
2022/03/28 00:31:43;;;;;;;;;;;6.90;99.90;;;;;;5082901;28;20679;-73
2022/03/28 00:34:10;;;;;;;;;;;6.80;99.90;;;;;;5099198;28;20003;-73
2022/03/28 00:36:40;;;;;;;;;;;6.70;99.90;;;;;;5100342;28;20283;-73
2022/03/28 00:39:07;;;;;;;;;;;6.80;99.90;;;;;;5093480;27;20280;-73
2022/03/28 00:41:34;;;;;;;;;;;6.90;99.90;;;;;;5106424;28;20010;-73
2022/03/28 00:44:00;;;;;;;;;;;7.00;99.90;;;;;;5087099;28;19924;-73
2022/03/28 00:46:29;;;;;;;;;;;7.20;99.90;;;;;;5101360;28;20536;-74
2022/03/28 00:49:09;;;;;;;;;;;7.30;99.90;;;;;;5098763;28;19943;-74
2022/03/28 00:51:36;;;;;;;;;;;7.30;99.90;;;;;;5106602;28;19928;-74
2022/03/28 00:54:04;;;;;;;;;;;7.30;99.90;;;;;;5104857;28;19967;-74
2022/03/28 00:56:31;;;;;;;;;;;7.20;99.90;;;;;;5101227;28;20367;-74
2022/03/28 00:58:58;;;;;;;;;;;7.00;99.90;;;;;;5105648;28;19923;-75
2022/03/28 01:01:25;;;;;;;;;;;6.90;99.90;;;;;;5102876;28;19923;-74
2022/03/28 01:03:52;;;;;;;;;;;6.60;99.90;;;;;;5095662;28;19928;-74
2022/03/28 01:06:19;;;;;;;;;;;6.50;99.90;;;;;;5082957;28;20026;-74
2022/03/28 01:08:46;;;;;;;;;;;6.30;99.90;;;;;;5102133;28;19924;-73
2022/03/28 01:11:13;;;;;;;;;;;6.10;99.90;;;;;;5105971;28;20358;-74
2022/03/28 01:13:40;;;;;;;;;;;6.00;99.90;;;;;;5100979;28;20014;-74
2022/03/28 01:16:08;;;;;;;;;;;6.00;99.90;;;;;;5105459;28;20556;-74
2022/03/28 01:18:35;;;;;;;;;;;5.90;99.90;;;;;;5099172;28;19931;-74
2022/03/28 01:21:03;;;;;;;;;;;5.80;99.90;;;;;;5104854;28;19924;-74
2022/03/28 01:23:30;;;;;;;;;;;5.70;99.90;;;;;;5101106;27;19997;-73
2022/03/28 01:25:57;;;;;;;;;;;5.70;99.90;;;;;;5105603;27;22298;-73
2022/03/28 01:28:27;;;;;;;;;;;5.60;99.90;;;;;;5107809;28;19924;-74
2022/03/28 01:30:54;;;;;;;;;;;5.60;99.90;;;;;;5100332;28;20382;-74
2022/03/28 01:33:21;;;;;;;;;;;5.60;99.90;;;;;;5097604;28;20015;-73
2022/03/28 01:35:49;;;;;;;;;;;5.50;99.90;;;;;;5098766;28;19924;-73
2022/03/28 01:38:19;;;;;;;;;;;5.40;99.90;;;;;;5098463;28;19935;-73
2022/03/28 01:40:50;;;;;;;;;;;5.40;99.90;;;;;;5099875;28;19969;-74
2022/03/28 01:43:17;;;;;;;;;;;5.40;99.90;;;;;;5104726;28;19956;-74
2022/03/28 01:45:46;;;;;;;;;;;5.40;99.90;;;;;;5101578;28;19924;-74
2022/03/28 01:48:13;;;;;;;;;;;5.40;99.90;;;;;;5098095;28;19932;-74
2022/03/28 01:50:40;;;;;;;;;;;5.30;99.90;;;;;;5095159;28;19945;-74
2022/03/28 01:53:07;;;;;;;;;;;5.30;99.90;;;;;;5097737;28;19924;-74
2022/03/28 01:55:36;;;;;;;;;;;5.20;99.90;;;;;;5106021;28;19928;-74
2022/03/28 01:58:03;;;;;;;;;;;5.20;99.90;;;;;;5099727;28;19928;-74
2022/03/28 02:00:32;;;;;;;;;;;5.00;99.90;;;;;;5086673;28;19931;-74
2022/03/28 02:02:59;;;;;;;;;;;4.90;99.90;;;;;;5091313;28;19955;-73
2022/03/28 02:05:27;;;;;;;;;;;4.90;99.90;;;;;;5096288;28;20402;-73
2022/03/28 02:07:54;;;;;;;;;;;4.80;99.90;;;;;;5105270;28;19930;-73
2022/03/28 02:10:21;;;;;;;;;;;4.70;99.90;;;;;;5098090;28;19928;-74
2022/03/28 02:12:48;;;;;;;;;;;4.60;99.90;;;;;;5104102;28;19932;-73
2022/03/28 02:15:16;;;;;;;;;;;4.60;99.90;;;;;;5102329;28;20014;-74
2022/03/28 02:17:43;;;;;;;;;;;4.50;99.90;;;;;;5100523;28;19928;-74
2022/03/28 02:20:10;;;;;;;;;;;4.40;99.90;;;;;;5102350;28;19960;-73
2022/03/28 02:22:39;;;;;;;;;;;4.40;99.90;;;;;;5094628;28;20345;-73
2022/03/28 02:25:06;;;;;;;;;;;4.40;99.90;;;;;;5104932;28;19924;-74
2022/03/28 02:27:35;;;;;;;;;;;4.50;99.90;;;;;;5099955;28;19930;-74
2022/03/28 02:30:03;;;;;;;;;;;4.50;99.90;;;;;;5105829;28;19923;-74
2022/03/28 02:32:30;;;;;;;;;;;4.50;99.90;;;;;;5084925;28;19923;-74
2022/03/28 02:34:57;;;;;;;;;;;4.50;99.90;;;;;;5103633;28;19923;-74
2022/03/28 02:37:23;;;;;;;;;;;4.50;99.90;;;;;;5093787;28;19924;-73
2022/03/28 02:39:50;;;;;;;;;;;4.40;99.90;;;;;;5096760;28;19928;-74
2022/03/28 02:42:23;;;;;;;;;;;4.40;99.90;;;;;;5082949;28;19924;-74
2022/03/28 02:44:50;;;;;;;;;;;4.30;99.90;;;;;;5085827;28;20006;-74
2022/03/28 02:47:18;;;;;;;;;;;4.30;99.90;;;;;;5103486;28;19969;-74
2022/03/28 02:49:44;;;;;;;;;;;4.30;99.90;;;;;;5102271;28;20364;-73
2022/03/28 02:52:11;;;;;;;;;;;4.20;99.90;;;;;;5108213;28;19969;-73
2022/03/28 02:54:38;;;;;;;;;;;4.20;99.90;;;;;;5097761;28;19931;-73
2022/03/28 02:57:05;;;;;;;;;;;4.20;99.90;;;;;;5106245;28;19937;-73
2022/03/28 02:59:31;;;;;;;;;;;4.20;99.90;;;;;;5095667;28;19924;-73
2022/03/28 03:02:04;;;;;;;;;;;4.30;99.90;;;;;;5104895;28;20011;-74
2022/03/28 03:04:32;;;;;;;;;;;4.30;99.90;;;;;;5091548;28;19931;-73
2022/03/28 03:06:59;;;;;;;;;;;4.30;99.90;;;;;;5106430;28;19927;-74
2022/03/28 03:09:33;;;;;;;;;;;4.30;99.90;;;;;;5100195;28;20019;-74
2022/03/28 03:11:59;;;;;;;;;;;4.30;99.90;;;;;;5102205;28;20422;-74
2022/03/28 03:14:27;;;;;;;;;;;4.30;99.90;;;;;;5100230;28;19923;-73
2022/03/28 03:16:54;;;;;;;;;;;4.40;99.90;;;;;;5105085;28;20026;-75
2022/03/28 03:19:21;;;;;;;;;;;4.50;99.90;;;;;;5100917;28;19978;-73
2022/03/28 03:21:48;;;;;;;;;;;4.70;99.90;;;;;;5099146;28;20015;-74
2022/03/28 03:24:15;;;;;;;;;;;4.90;99.90;;;;;;5072135;28;20019;-73
2022/03/28 03:26:42;;;;;;;;;;;4.90;99.90;;;;;;5100971;28;19931;-74
2022/03/28 03:29:09;;;;;;;;;;;4.90;99.90;;;;;;5105534;28;19938;-73
2022/03/28 03:31:39;;;;;;;;;;;4.80;99.90;;;;;;5104845;28;19962;-73
2022/03/28 03:34:07;;;;;;;;;;;4.70;99.90;;;;;;5098971;28;20578;-73
2022/03/28 03:36:34;;;;;;;;;;;4.60;99.90;;;;;;5080921;28;20554;-73
2022/03/28 03:39:02;;;;;;;;;;;4.60;99.90;;;;;;5103632;28;19924;-74
2022/03/28 03:41:28;;;;;;;;;;;4.50;99.90;;;;;;5101333;28;20021;-73
2022/03/28 03:43:55;;;;;;;;;;;4.50;99.90;;;;;;5106054;28;19932;-73
2022/03/28 03:46:21;;;;;;;;;;;4.60;99.90;;;;;;5094492;28;19928;-73
2022/03/28 03:48:48;;;;;;;;;;;4.50;99.90;;;;;;5107852;28;19976;-73
2022/03/28 03:51:15;;;;;;;;;;;4.50;99.90;;;;;;5083503;28;19924;-74
2022/03/28 03:53:42;;;;;;;;;;;4.50;99.90;;;;;;5098606;28;19977;-73
2022/03/28 03:56:11;;;;;;;;;;;4.50;99.90;;;;;;5101714;28;19931;-74
2022/03/28 03:58:38;;;;;;;;;;;4.60;99.90;;;;;;5098810;28;19924;-74
2022/03/28 04:01:09;;;;;;;;;;;4.60;99.90;;;;;;5089603;28;19924;-73
2022/03/28 04:03:36;;;;;;;;;;;4.50;99.90;;;;;;5101158;28;19959;-74
2022/03/28 04:06:03;;;;;;;;;;;4.40;99.90;;;;;;5076584;28;20011;-73
2022/03/28 04:08:30;;;;;;;;;;;4.20;99.90;;;;;;5094212;28;19924;-73
2022/03/28 04:10:57;;;;;;;;;;;4.10;99.90;;;;;;5090692;28;19934;-73
2022/03/28 04:13:23;;;;;;;;;;;3.90;99.90;;;;;;5100781;28;19971;-73
2022/03/28 04:15:51;;;;;;;;;;;3.90;99.90;;;;;;5108269;28;20014;-74
2022/03/28 04:18:17;;;;;;;;;;;3.80;99.90;;;;;;5100302;28;19997;-73
2022/03/28 04:20:44;;;;;;;;;;;3.90;99.90;;;;;;5105172;28;19966;-73
2022/03/28 04:23:11;;;;;;;;;;;4.10;99.90;;;;;;5108478;28;20469;-73
2022/03/28 04:25:37;;;;;;;;;;;4.50;99.90;;;;;;5100527;28;20374;-73
2022/03/28 04:28:07;;;;;;;;;;;4.60;99.90;;;;;;5097675;28;19928;-72
2022/03/28 04:30:34;;;;;;;;;;;4.60;99.90;;;;;;5100920;28;19943;-74
2022/03/28 04:33:02;;;;;;;;;;;4.60;99.90;;;;;;5090624;28;19975;-73
2022/03/28 04:35:29;;;;;;;;;;;4.50;99.90;;;;;;5107271;28;20343;-74
2022/03/28 04:38:00;;;;;;;;;;;4.50;99.90;;;;;;5100532;28;20328;-74
2022/03/28 04:40:27;;;;;;;;;;;4.30;99.90;;;;;;5087269;28;20250;-74
2022/03/28 04:42:56;;;;;;;;;;;4.20;99.90;;;;;;5109185;28;19938;-74
2022/03/28 04:45:23;;;;;;;;;;;4.10;99.90;;;;;;5103677;28;19953;-74
2022/03/28 04:47:50;;;;;;;;;;;3.90;99.90;;;;;;5093211;28;19993;-74
2022/03/28 04:50:17;;;;;;;;;;;4.00;99.90;;;;;;5087515;28;19923;-74
2022/03/28 04:52:44;;;;;;;;;;;4.10;99.90;;;;;;5098092;28;19963;-74
2022/03/28 04:55:10;;;;;;;;;;;4.10;99.90;;;;;;5098290;28;19931;-74
2022/03/28 04:57:37;;;;;;;;;;;4.20;99.90;;;;;;5105370;28;19931;-74
2022/03/28 05:00:06;;;;;;;;;;;4.20;99.90;;;;;;5107190;28;19927;-74
2022/03/28 05:02:34;;;;;;;;;;;4.30;99.90;;;;;;5097657;28;19950;-74
2022/03/28 05:05:02;;;;;;;;;;;4.40;99.90;;;;;;5098229;28;19956;-74
2022/03/28 05:07:29;;;;;;;;;;;4.40;99.90;;;;;;5100874;28;20389;-74
2022/03/28 05:09:57;;;;;;;;;;;4.40;99.90;;;;;;5093540;27;19950;-74
2022/03/28 05:12:23;;;;;;;;;;;4.50;99.90;;;;;;5102012;28;20381;-74
2022/03/28 05:14:50;;;;;;;;;;;4.50;99.90;;;;;;5082994;28;19924;-74
2022/03/28 05:17:24;;;;;;;;;;;4.60;99.90;;;;;;5098588;27;19964;-73
2022/03/28 05:19:51;;;;;;;;;;;4.70;99.90;;;;;;5097787;28;19994;-72
2022/03/28 05:22:18;;;;;;;;;;;4.80;99.90;;;;;;5090884;28;20447;-73
2022/03/28 05:24:45;;;;;;;;;;;4.90;99.90;;;;;;5105311;27;20574;-72
2022/03/28 05:27:12;;;;;;;;;;;5.10;99.90;;;;;;5101046;27;19962;-72
2022/03/28 05:29:39;;;;;;;;;;;5.10;99.90;;;;;;5108156;28;19927;-72
2022/03/28 05:32:06;;;;;;;;;;;5.10;99.90;;;;;;5101035;28;20265;-73
2022/03/28 05:34:33;;;;;;;;;;;5.20;99.90;;;;;;5092441;28;19978;-72
2022/03/28 05:37:00;;;;;;;;;;;5.30;99.90;;;;;;5101188;28;19954;-73
2022/03/28 05:39:27;;;;;;;;;;;5.30;99.90;;;;;;5082960;28;19935;-71
2022/03/28 05:41:58;;;;;;;;;;;5.40;99.90;;;;;;5093685;28;19931;-71
2022/03/28 05:44:25;;;;;;;;;;;5.50;99.90;;;;;;5090572;28;20042;-70
2022/03/28 05:46:52;;;;;;;;;;;5.60;99.90;;;;;;5084550;28;19943;-71
2022/03/28 05:49:19;;;;;;;;;;;5.70;99.90;;;;;;5095188;28;19993;-74
2022/03/28 05:51:46;;;;;;;;;;;5.70;99.90;;;;;;5097850;28;19930;-74
2022/03/28 05:54:13;;;;;;;;;;;5.80;99.90;;;;;;5098857;28;19928;-74
2022/03/28 05:56:39;;;;;;;;;;;5.90;99.90;;;;;;5093964;27;19928;-74
2022/03/28 05:59:09;;;;;;;;;;;6.00;99.90;;;;;;5095908;27;20059;-74
2022/03/28 06:01:36;;;;;;;;;;;6.00;99.90;;;;;;5092538;28;20393;-73
2022/03/28 06:04:03;;;;;;;;;;;6.10;99.90;;;;;;5072155;28;19927;-74
2022/03/28 06:06:30;;;;;;;;;;;6.10;99.90;;;;;;5095126;28;19932;-73
2022/03/28 06:08:57;;;;;;;;;;;6.20;99.90;;;;;;5095255;28;19928;-74
2022/03/28 06:11:24;;;;;;;;;;;6.30;99.90;;;;;;5076121;28;19924;-74
2022/03/28 06:13:51;;;;;;;;;;;6.60;99.90;;;;;;5098177;28;19966;-74
2022/03/28 06:16:17;;;;;;;;;;;7.30;99.90;;;;;;5094946;28;19924;-74
2022/03/28 06:18:44;;;;;;;;;;;8.30;99.90;;;;;;5096504;28;19936;-74
2022/03/28 06:21:11;;;;;;;;;;;9.10;99.90;;;;;;5092695;28;20622;-75
2022/03/28 06:23:38;;;;;;;;;;;9.80;99.90;;;;;;5098943;28;20008;-74
2022/03/28 06:26:05;;;;;;;;;;;10.60;99.90;;;;;;5096329;28;19928;-73
2022/03/28 06:28:31;;;;;;;;;;;11.40;99.90;;;;;;5101906;28;20015;-73
2022/03/28 06:30:58;;;;;;;;;;;12.10;99.90;;;;;;5099870;28;19930;-73
2022/03/28 06:33:25;;;;;;;;;;;12.70;99.90;;;;;;5095913;28;19935;-73
2022/03/28 06:35:56;;;;;;;;;;;13.00;99.90;;;;;;5098639;27;20050;-73
2022/03/28 06:38:23;;;;;;;;;;;13.50;99.90;;;;;;5098682;27;20018;-73
2022/03/28 06:40:49;;;;;;;;;;;13.90;99.90;;;;;;5099657;28;19927;-73
2022/03/28 06:43:16;;;;;;;;;;;14.30;99.90;;;;;;5096705;28;20271;-73
2022/03/28 06:45:43;;;;;;;;;;;14.70;99.90;;;;;;5094913;27;20027;-73
2022/03/28 06:48:09;;;;;;;;;;;14.90;99.90;;;;;;5103327;28;19924;-74
2022/03/28 06:50:58;;;;;;;;;;;15.20;99.90;;;;;;5101816;27;20377;-73
2022/03/28 06:53:25;;;;;;;;;;;15.30;99.90;;;;;;5099175;28;20404;-73
2022/03/28 06:55:52;;;;;;;;;;;15.20;99.90;;;;;;5095631;28;20396;-74
2022/03/28 06:58:19;;;;;;;;;;;15.40;99.90;;;;;;5095595;28;19924;-74
2022/03/28 07:00:46;;;;;;;;;;;15.70;99.90;;;;;;5096940;28;19934;-74
2022/03/28 07:03:13;;;;;;;;;;;16.00;99.90;;;;;;5098383;28;19928;-74
2022/03/28 07:05:43;;;;;;;;;;;16.40;99.90;;;;;;5103070;28;19924;-74
2022/03/28 07:08:10;;;;;;;;;;;16.70;99.90;;;;;;5086098;28;20594;-75
2022/03/28 07:10:37;;;;;;;;;;;17.10;99.90;;;;;;5110664;28;19927;-75
2022/03/28 07:13:04;;;;;;;;;;;17.50;99.90;;;;;;5102027;28;19930;-75
2022/03/28 07:15:31;;;;;;;;;;;17.60;99.90;;;;;;5101332;28;19931;-75
2022/03/28 07:18:02;;;;;;;;;;;17.70;99.90;;;;;;5098179;28;19950;-75
2022/03/28 07:20:30;;;;;;;;;;;18.00;99.90;;;;;;5106429;28;20374;-74
2022/03/28 07:22:57;;;;;;;;;;;18.20;99.90;;;;;;5101553;28;20011;-75
2022/03/28 07:25:24;;;;;;;;;;;18.30;99.90;;;;;;5087649;28;19975;-75
2022/03/28 07:27:51;;;;;;;;;;;18.50;99.90;;;;;;5101260;28;19923;-75
2022/03/28 07:30:19;;;;;;;;;;;18.50;99.90;;;;;;5093882;28;19970;-75
2022/03/28 07:32:46;;;;;;;;;;;18.60;99.90;;;;;;5105500;28;20309;-74
2022/03/28 07:35:14;;;;;;;;;;;18.60;99.90;;;;;;5107935;28;19968;-74
2022/03/28 07:37:41;;;;;;;;;;;18.20;99.90;;;;;;5095456;28;19939;-74
2022/03/28 07:40:09;;;;;;;;;;;17.70;99.90;;;;;;5102423;28;20589;-75
2022/03/28 07:42:37;;;;;;;;;;;17.40;99.90;;;;;;5099373;28;19986;-75
2022/03/28 07:45:08;;;;;;;;;;;17.20;99.90;;;;;;5081870;28;19930;-74
2022/03/28 07:47:36;;;;;;;;;;;16.90;99.90;;;;;;5105070;28;19924;-75
2022/03/28 07:50:04;;;;;;;;;;;16.80;99.90;;;;;;5098237;28;19930;-74
2022/03/28 07:52:31;;;;;;;;;;;17.00;99.90;;;;;;5101919;28;19927;-75
2022/03/28 07:55:00;;;;;;;;;;;17.20;99.90;;;;;;5100143;28;19927;-75
2022/03/28 07:57:27;;;;;;;;;;;17.00;99.90;;;;;;5096426;28;19947;-75
2022/03/28 07:59:54;;;;;;;;;;;16.80;99.90;;;;;;5109763;27;19946;-75
2022/03/28 08:02:41;;;;;;;;;;;16.90;99.90;;;;;;5102372;28;20282;-75
2022/03/28 08:05:08;;;;;;;;;;;17.20;99.90;;;;;;5089756;28;19923;-75
2022/03/28 08:07:36;;;;;;;;;;;17.30;99.90;;;;;;5083530;28;19950;-75
2022/03/28 08:10:05;;;;;;;;;;;17.30;99.90;;;;;;5096676;28;20436;-75
2022/03/28 08:12:36;;;;;;;;;;;17.10;99.90;;;;;;5098367;27;19947;-75
2022/03/28 08:15:05;;;;;;;;;;;17.20;99.90;;;;;;5093982;28;19928;-75
2022/03/28 08:17:31;;;;;;;;;;;17.10;99.90;;;;;;5103080;28;20259;-76
2022/03/28 08:19:58;;;;;;;;;;;17.00;99.90;;;;;;5102394;28;19923;-76
2022/03/28 08:22:25;;;;;;;;;;;17.20;99.90;;;;;;5105011;28;19928;-74
2022/03/28 08:24:51;;;;;;;;;;;17.30;99.90;;;;;;5101183;27;19924;-73
2022/03/28 08:27:18;;;;;;;;;;;17.30;99.90;;;;;;5101556;28;19924;-73
2022/03/28 08:29:44;;;;;;;;;;;17.50;99.90;;;;;;5089343;28;19932;-74
2022/03/28 08:32:11;;;;;;;;;;;17.40;99.90;;;;;;5100548;28;19999;-74
2022/03/28 08:34:38;;;;;;;;;;;17.80;99.90;;;;;;5103772;27;20363;-74
2022/03/28 08:37:09;;;;;;;;;;;17.80;99.90;;;;;;5098822;28;19974;-75
2022/03/28 08:39:36;;;;;;;;;;;17.90;99.90;;;;;;5105061;28;19971;-74
2022/03/28 08:42:03;;;;;;;;;;;17.90;99.90;;;;;;5101795;28;20014;-75
2022/03/28 08:44:30;;;;;;;;;;;18.00;99.90;;;;;;5098875;28;19934;-75
2022/03/28 08:46:57;;;;;;;;;;;18.20;99.90;;;;;;5102366;28;19924;-75
2022/03/28 08:49:24;;;;;;;;;;;18.30;99.90;;;;;;5104956;27;20301;-75
2022/03/28 08:51:52;;;;;;;;;;;18.50;99.90;;;;;;5094132;27;19931;-75
2022/03/28 08:54:19;;;;;;;;;;;18.80;99.90;;;;;;5087855;28;19924;-74
2022/03/28 08:56:46;;;;;;;;;;;18.80;99.90;;;;;;5100335;28;19951;-74
2022/03/28 08:59:13;;;;;;;;;;;19.10;99.90;;;;;;5097617;28;20263;-75
2022/03/28 09:01:41;;;;;;;;;;;19.20;99.90;;;;;;5104838;28;19927;-74
2022/03/28 09:04:09;;;;;;;;;;;19.50;99.90;;;;;;5084202;28;20743;-74
2022/03/28 09:06:45;;;;;;;;;;;19.70;99.90;;;;;;5103985;28;19981;-74
2022/03/28 09:09:24;;;;;;;;;;;19.20;99.90;;;;;;5101422;28;19981;-74
2022/03/28 09:11:55;;;;;;;;;;;19.00;99.90;;;;;;5099385;28;19999;-74
2022/03/28 09:14:32;;;;;;;;;;;19.20;99.90;;;;;;5091979;28;19942;-74
2022/03/28 09:16:58;;;;;;;;;;;18.90;99.90;;;;;;5098683;28;20476;-74
2022/03/28 09:19:25;;;;;;;;;;;18.90;99.90;;;;;;5082626;28;19932;-74
2022/03/28 09:21:52;;;;;;;;;;;19.40;99.90;;;;;;5092530;28;19923;-75
2022/03/28 09:24:29;;;;;;;;;;;20.00;99.90;;;;;;5108578;28;19928;-75
2022/03/28 09:27:14;;;;;;;;;;;20.20;99.90;;;;;;5103837;28;20376;-75
2022/03/28 09:29:59;;;;;;;;;;;20.70;99.90;;;;;;5092927;28;19931;-75
2022/03/28 09:32:27;;;;;;;;;;;20.70;99.90;;;;;;5101868;28;19928;-75
2022/03/28 09:35:06;;;;;;;;;;;21.20;99.90;;;;;;5110199;28;19955;-75
2022/03/28 09:37:51;;;;;;;;;;;21.50;99.90;;;;;;5102973;28;20303;-74
2022/03/28 09:40:30;;;;;;;;;;;21.00;99.90;;;;;;5090543;28;19930;-75
2022/03/28 09:42:58;;;;;;;;;;;21.20;99.90;;;;;;5099991;28;20006;-75
2022/03/28 09:45:27;;;;;;;;;;;20.90;99.90;;;;;;5091426;28;19971;-75
2022/03/28 09:47:55;;;;;;;;;;;21.00;99.90;;;;;;5085812;28;20018;-75
2022/03/28 09:50:32;;;;;;;;;;;21.20;99.90;;;;;;5107131;28;19998;-74
2022/03/28 09:53:09;;;;;;;;;;;21.60;99.90;;;;;;5108673;28;19982;-74
2022/03/28 09:55:47;;;;;;;;;;;21.80;99.90;;;;;;5104830;28;19930;-74
2022/03/28 09:58:30;;;;;;;;;;;21.90;99.90;;;;;;5084148;28;20014;-74
2022/03/28 10:00:57;;;;;;;;;;;21.50;99.90;;;;;;5105525;28;19931;-75
2022/03/28 10:03:24;;;;;;;;;;;21.60;99.90;;;;;;5097749;28;20430;-75
2022/03/28 10:05:52;;;;;;;;;;;22.60;99.90;;;;;;5096780;28;19928;-75
2022/03/28 10:08:18;;;;;;;;;;;23.00;99.90;;;;;;5106873;28;19924;-75
2022/03/28 10:10:50;;;;;;;;;;;23.50;99.90;;;;;;5095404;28;19930;-75
2022/03/28 10:13:17;;;;;;;;;;;23.60;99.90;;;;;;5099642;28;19924;-73
2022/03/28 10:15:43;;;;;;;;;;;23.70;99.90;;;;;;5112706;28;19934;-72
2022/03/28 10:18:10;;;;;;;;;;;23.60;99.90;;;;;;5094154;28;19963;-71
2022/03/28 10:20:40;;;;;;;;;;;23.20;99.90;;;;;;5110155;28;19938;-71
2022/03/28 10:23:12;;;;;;;;;;;23.30;99.90;;;;;;5104692;28;19924;-71
2022/03/28 10:25:40;;;;;;;;;;;22.80;99.90;;;;;;5099212;28;19928;-74
2022/03/28 10:28:08;;;;;;;;;;;22.30;99.90;;;;;;5100726;28;19967;-74
2022/03/28 10:30:34;;;;;;;;;;;22.80;99.90;;;;;;5098747;28;20011;-75
2022/03/28 10:33:21;;;;;;;;;;;23.30;99.90;;;;;;5101691;28;20011;-74
2022/03/28 10:35:57;;;;;;;;;;;23.80;99.90;;;;;;5104411;28;19947;-68
2022/03/28 10:38:26;;;;;;;;;;;24.70;99.90;;;;;;5101156;28;19923;-69
2022/03/28 10:41:00;;;;;;;;;;;24.40;99.90;;;;;;5084715;28;19924;-68
2022/03/28 10:43:28;;;;;;;;;;;24.80;99.90;;;;;;5093091;28;19977;-68
2022/03/28 10:45:56;;;;;;;;;;;25.00;99.90;;;;;;5099931;28;20011;-68
2022/03/28 10:48:44;;;;;;;;;;;24.90;99.90;;;;;;5085608;28;19924;-69
2022/03/28 10:51:11;;;;;;;;;;;25.00;99.90;;;;;;5094609;28;20011;-69
2022/03/28 10:53:43;;;;;;;;;;;25.40;99.90;;;;;;5100133;28;20390;-69
2022/03/28 10:56:13;;;;;;;;;;;25.00;99.90;;;;;;5087480;28;19973;-69
2022/03/28 10:58:42;;;;;;;;;;;24.90;99.90;;;;;;5095322;28;19943;-69
2022/03/28 11:01:09;;;;;;;;;;;25.00;99.90;;;;;;5097783;28;19947;-69
2022/03/28 11:03:37;;;;;;;;;;;25.30;99.90;;;;;;5098297;28;19927;-68
2022/03/28 11:06:04;;;;;;;;;;;25.60;99.90;;;;;;5088018;28;19924;-69
2022/03/28 11:08:36;;;;;;;;;;;24.80;99.90;;;;;;5078453;28;19930;-69
2022/03/28 11:11:22;;;;;;;;;;;24.70;99.90;;;;;;5092053;28;20247;-68
2022/03/28 11:14:08;;;;;;;;;;;25.10;99.90;;;;;;5094978;28;19993;-67
2022/03/28 11:16:44;;;;;;;;;;;24.90;99.90;;;;;;5095812;28;20333;-68
2022/03/28 11:19:20;;;;;;;;;;;24.90;99.90;;;;;;5095104;28;19924;-68
2022/03/28 11:21:57;;;;;;;;;;;25.10;99.90;;;;;;5094795;28;19931;-68
2022/03/28 11:24:41;;;;;;;;;;;26.00;99.90;;;;;;5099701;27;19927;-68
2022/03/28 11:27:12;;;;;;;;;;;26.50;98.70;;;;;;5105770;28;19923;-68
2022/03/28 11:29:39;;;;;;;;;;;26.50;98.20;;;;;;5102997;28;19959;-68
2022/03/28 11:32:11;;;;;;;;;;;26.20;98.10;;;;;;5081574;28;20391;-68
2022/03/28 11:34:38;;;;;;;;;;;26.20;98.90;;;;;;5086533;27;19930;-69
2022/03/28 11:37:07;;;;;;;;;;;26.40;99.00;;;;;;5100320;28;19924;-68
2022/03/28 11:39:53;;;;;;;;;;;26.30;97.80;;;;;;5100961;28;20757;-68
2022/03/28 11:42:23;;;;;;;;;;;25.20;97.70;;;;;;5102723;28;20264;-68
2022/03/28 11:44:50;;;;;;;;;;;24.90;98.30;;;;;;5104594;28;19974;-69
2022/03/28 11:47:21;;;;;;;;;;;25.10;98.50;;;;;;5100120;28;19924;-68
2022/03/28 11:49:55;;;;;;;;;;;24.40;97.10;;;;;;5097912;28;20406;-67
2022/03/28 11:52:22;;;;;;;;;;;23.80;97.20;;;;;;5106468;28;19988;-68
2022/03/28 11:54:50;;;;;;;;;;;23.50;97.60;;;;;;5080447;28;19931;-67
2022/03/28 12:00:12;;;;;;;;;;;24.60;98.10;;;;;;5101552;28;20410;-68
2022/03/28 12:02:58;;;;;;;;;;;24.80;95.80;;;;;;5096848;28;19924;-68
2022/03/28 12:05:29;;;;;;;;;;;24.90;95.20;;;;;;5093650;28;19993;-68
2022/03/28 12:07:57;;;;;;;;;;;25.30;94.50;;;;;;5106196;28;20007;-68
2022/03/28 12:10:24;;;;;;;;;;;25.70;93.60;;;;;;5101281;28;19935;-68
2022/03/28 12:12:51;;;;;;;;;;;25.00;93.30;;;;;;5096353;28;20420;-68
2022/03/28 12:15:31;;;;;;;;;;;24.80;94.90;;;;;;5096757;27;19958;-68
2022/03/28 12:17:59;;;;;;;;;;;24.90;94.30;;;;;;5095241;27;19963;-68
2022/03/28 12:20:28;;;;;;;;;;;24.80;95.30;;;;;;5103201;28;19966;-67
2022/03/28 12:22:55;;;;;;;;;;;25.20;94.60;;;;;;5097307;28;20380;-67
2022/03/28 12:25:28;;;;;;;;;;;25.30;93.70;;;;;;5097662;28;19924;-68
2022/03/28 12:27:56;;;;;;;;;;;25.30;95.00;;;;;;5094966;28;19958;-68
2022/03/28 12:30:23;;;;;;;;;;;25.50;92.60;;;;;;5077396;28;19924;-67
2022/03/28 12:32:50;;;;;;;;;;;25.60;93.00;;;;;;5099227;28;19924;-68
2022/03/28 12:35:26;;;;;;;;;;;26.20;93.50;;;;;;5096036;28;20018;-68
2022/03/28 12:38:00;;;;;;;;;;;26.30;94.00;;;;;;5101229;28;19931;-68
2022/03/28 12:40:28;;;;;;;;;;;25.90;94.00;;;;;;5100559;27;19928;-69
2022/03/28 12:42:55;;;;;;;;;;;25.70;92.90;;;;;;5100738;27;19924;-71
2022/03/28 12:45:31;;;;;;;;;;;25.30;91.70;;;;;;5105426;28;19971;-69
2022/03/28 12:48:01;;;;;;;;;;;25.00;91.20;;;;;;5096441;28;19963;-68
2022/03/28 12:50:29;;;;;;;;;;;25.00;91.60;;;;;;5094136;28;20018;-68
2022/03/28 12:53:15;;;;;;;;;;;24.90;91.40;;;;;;5097869;27;19924;-68
2022/03/28 12:55:43;;;;;;;;;;;25.20;91.60;;;;;;5098293;28;20000;-68
2022/03/28 12:58:13;;;;;;;;;;;24.80;92.80;;;;;;5098440;28;20015;-69
2022/03/28 13:00:40;;;;;;;;;;;25.20;92.90;;;;;;5093829;27;19928;-69
2022/03/28 13:03:26;;;;;;;;;;;25.30;92.30;;;;;;5096856;27;19924;-69
2022/03/28 13:06:04;;;;;;;;;;;25.40;92.30;;;;;;5096972;28;19962;-69
2022/03/28 13:08:38;;;;;;;;;;;24.80;92.50;;;;;;5084042;28;20378;-69
2022/03/28 13:11:12;;;;;;;;;;;25.10;92.50;;;;;;5103178;27;19924;-70
2022/03/28 13:13:40;;;;;;;;;;;25.50;92.00;;;;;;5086470;28;19935;-68
2022/03/28 13:16:07;;;;;;;;;;;25.40;91.10;;;;;;5093577;28;20011;-68
2022/03/28 13:18:35;;;;;;;;;;;25.40;90.80;;;;;;5096541;27;19924;-69
2022/03/28 13:21:02;;;;;;;;;;;26.00;91.20;;;;;;5099179;27;19932;-71
2022/03/28 13:23:33;;;;;;;;;;;26.20;91.10;;;;;;5091793;28;19931;-68
2022/03/28 13:26:13;;;;;;;;;;;26.70;90.50;;;;;;5097738;27;19967;-68
2022/03/28 13:28:43;;;;;;;;;;;26.80;90.50;;;;;;5103232;28;19932;-68
2022/03/28 13:31:10;;;;;;;;;;;;;;;;;;5095519;27;20027;-68
2022/03/28 13:33:39;;;;;;;;;;;27.90;86.60;;;;;;5078147;28;19935;-67
2022/03/28 13:36:07;;;;;;;;;;;27.90;86.30;;;;;;5099326;27;20018;-67
2022/03/28 13:38:40;;;;;;;;;;;28.50;85.40;;;;;;5096379;27;19981;-68
2022/03/28 13:41:08;;;;;;;;;;;28.00;82.10;;;;;;5097262;27;19932;-68
2022/03/28 13:43:35;;;;;;;;;;;27.40;84.20;;;;;;5099340;27;20007;-68
2022/03/28 13:46:03;;;;;;;;;;;26.50;84.20;;;;;;5104778;28;19947;-68
2022/03/28 13:48:30;;;;;;;;;;;26.20;86.00;;;;;;5083987;28;19932;-68
2022/03/28 13:50:58;;;;;;;;;;;26.10;86.10;;;;;;5103182;27;19928;-68
2022/03/28 13:53:45;;;;;;;;;;;26.80;85.80;;;;;;5085237;28;19924;-69
2022/03/28 13:56:11;;;;;;;;;;;26.90;84.00;;;;;;5105465;27;19951;-68
2022/03/28 13:58:40;;;;;;;;;;;26.90;86.50;;;;;;5102929;28;19998;-68
2022/03/28 14:01:07;;;;;;;;;;;27.20;83.80;;;;;;5099654;27;19928;-69
2022/03/28 14:03:34;;;;;;;;;;;27.00;84.90;;;;;;5100140;27;19924;-68
2022/03/28 14:06:02;;;;;;;;;;;26.30;83.90;;;;;;5080491;28;19968;-68
2022/03/28 14:08:31;;;;;;;;;;;26.00;86.00;;;;;;5079593;28;19969;-68
2022/03/28 14:11:07;;;;;;;;;;;26.10;87.10;;;;;;5090778;27;20026;-68
2022/03/28 14:13:34;;;;;;;;;;;25.70;85.00;;;;;;5095057;28;19982;-68
2022/03/28 14:16:01;;;;;;;;;;;25.20;86.90;;;;;;5097477;27;19998;-70
2022/03/28 14:18:27;;;;;;;;;;;24.50;86.10;;;;;;5093334;27;19946;-68
2022/03/28 14:20:55;;;;;;;;;;;24.10;86.20;;;;;;5096352;28;20338;-68
2022/03/28 14:23:29;;;;;;;;;;;24.00;86.10;;;;;;5094707;28;19977;-68
2022/03/28 14:25:58;;;;;;;;;;;23.50;86.50;;;;;;5100945;28;20428;-68
2022/03/28 14:28:25;;;;;;;;;;;23.40;88.90;;;;;;5098291;28;20270;-68
2022/03/28 14:30:52;;;;;;;;;;;23.50;89.00;;;;;;5101545;28;20259;-68
2022/03/28 14:33:18;;;;;;;;;;;23.60;88.30;;;;;;5098763;28;19940;-68
2022/03/28 14:35:45;;;;;;;;;;;24.30;88.40;;;;;;5102931;28;20350;-68
2022/03/28 14:38:12;;;;;;;;;;;24.80;86.30;;;;;;5095928;28;19924;-68